KBWI/BWI METAR and TAF weather

Enter ICAO airport designator
Station Type Date Time Source
KBWI METAR 2021/05/11 21:54 UTC NOAA

KBWI 112154Z 32009KT 10SM FEW070 BKN080 BKN110 18/05 A3006 RMK AO2 SLP180 T01830050


Station Type Date Time Source
KBWI Decoded METAR 2021/05/11 21:54 UTC NOAA

BALTIMORE-WASHINGTON INTERNATIONAL , MD, United States (KBWI) 39-10N 076-41W 59M
May 11, 2021 - 05:54 PM EDT / 2021.05.11 2154 UTC
Wind: from the NW (320 degrees) at 10 MPH (9 KT):0
Visibility: 10 mile(s):0
Sky conditions: mostly cloudy
Temperature: 64.9 F (18.3 C)
Dew Point: 41.0 F (5.0 C)
Relative Humidity: 41%
Pressure (altimeter): 30.06 in. Hg (1017 hPa)
ob: KBWI 112154Z 32009KT 10SM FEW070 BKN080 BKN110 18/05 A3006 RMK AO2 SLP180 T01830050
cycle: 22

Station Type Date Time Source
KBWI TAF 2021/05/11 21:34 UTC NOAA

TAF
AMD KBWI 112032Z 1121/1224 28011G19KT P6SM BKN050
FM112300 31011KT P6SM BKN050
FM120400 32008KT P6SM SCT150
FM121400 33010G19KT P6SM SCT250

Example: see airport list